sensor_id;sensor_type;location;lat;lon;timestamp;P1;durP1;ratioP1;P2;durP2;ratioP2
15693;SDS011;7947;48.834;9.132;2024-03-06T00:01:56;4.23;;;2.33;;
15693;SDS011;7947;48.834;9.132;2024-03-06T00:04:59;4.77;;;2.50;;
15693;SDS011;7947;48.834;9.132;2024-03-06T00:08:02;3.13;;;2.00;;
15693;SDS011;7947;48.834;9.132;2024-03-06T00:11:05;4.07;;;2.50;;
15693;SDS011;7947;48.834;9.132;2024-03-06T00:14:09;3.57;;;2.13;;
15693;SDS011;7947;48.834;9.132;2024-03-06T00:17:14;4.10;;;1.97;;
15693;SDS011;7947;48.834;9.132;2024-03-06T00:20:16;3.93;;;2.77;;
15693;SDS011;7947;48.834;9.132;2024-03-06T00:23:19;5.57;;;2.43;;
15693;SDS011;7947;48.834;9.132;2024-03-06T00:26:22;5.17;;;2.30;;
15693;SDS011;7947;48.834;9.132;2024-03-06T00:29:26;3.30;;;2.20;;
15693;SDS011;7947;48.834;9.132;2024-03-06T00:32:33;5.53;;;2.70;;
15693;SDS011;7947;48.834;9.132;2024-03-06T00:35:35;2.97;;;1.83;;
15693;SDS011;7947;48.834;9.132;2024-03-06T00:38:38;6.17;;;2.83;;
15693;SDS011;7947;48.834;9.132;2024-03-06T00:41:41;4.73;;;2.87;;
15693;SDS011;7947;48.834;9.132;2024-03-06T00:44:45;4.17;;;2.37;;
15693;SDS011;7947;48.834;9.132;2024-03-06T00:47:48;3.57;;;2.03;;
15693;SDS011;7947;48.834;9.132;2024-03-06T00:50:50;2.97;;;1.83;;
15693;SDS011;7947;48.834;9.132;2024-03-06T00:53:53;2.90;;;2.03;;
15693;SDS011;7947;48.834;9.132;2024-03-06T00:56:56;4.73;;;2.00;;
15693;SDS011;7947;48.834;9.132;2024-03-06T01:00:00;4.87;;;1.93;;
15693;SDS011;7947;48.834;9.132;2024-03-06T01:03:05;2.03;;;1.70;;
15693;SDS011;7947;48.834;9.132;2024-03-06T01:06:08;3.17;;;1.70;;
15693;SDS011;7947;48.834;9.132;2024-03-06T01:09:10;2.10;;;1.90;;
15693;SDS011;7947;48.834;9.132;2024-03-06T01:12:13;4.53;;;1.87;;
15693;SDS011;7947;48.834;9.132;2024-03-06T01:15:17;1.73;;;1.53;;
15693;SDS011;7947;48.834;9.132;2024-03-06T01:18:20;3.70;;;1.77;;
15693;SDS011;7947;48.834;9.132;2024-03-06T01:21:23;3.50;;;1.40;;
15693;SDS011;7947;48.834;9.132;2024-03-06T01:24:26;2.23;;;1.63;;
15693;SDS011;7947;48.834;9.132;2024-03-06T01:27:28;2.97;;;1.53;;
15693;SDS011;7947;48.834;9.132;2024-03-06T01:30:33;1.73;;;1.50;;
15693;SDS011;7947;48.834;9.132;2024-03-06T01:33:35;1.47;;;1.37;;
15693;SDS011;7947;48.834;9.132;2024-03-06T01:36:38;1.90;;;1.60;;
15693;SDS011;7947;48.834;9.132;2024-03-06T01:39:41;5.33;;;1.70;;
15693;SDS011;7947;48.834;9.132;2024-03-06T01:42:43;2.27;;;1.67;;
15693;SDS011;7947;48.834;9.132;2024-03-06T01:45:50;4.57;;;1.77;;
15693;SDS011;7947;48.834;9.132;2024-03-06T01:48:55;2.07;;;1.60;;
15693;SDS011;7947;48.834;9.132;2024-03-06T01:52:01;4.30;;;1.57;;
15693;SDS011;7947;48.834;9.132;2024-03-06T01:55:05;2.70;;;1.80;;
15693;SDS011;7947;48.834;9.132;2024-03-06T01:58:09;2.30;;;1.60;;
15693;SDS011;7947;48.834;9.132;2024-03-06T02:01:14;1.80;;;1.67;;
15693;SDS011;7947;48.834;9.132;2024-03-06T02:04:18;4.03;;;1.73;;
15693;SDS011;7947;48.834;9.132;2024-03-06T02:07:21;3.07;;;2.23;;
15693;SDS011;7947;48.834;9.132;2024-03-06T02:10:26;2.23;;;1.67;;
15693;SDS011;7947;48.834;9.132;2024-03-06T02:13:29;3.23;;;1.80;;
15693;SDS011;7947;48.834;9.132;2024-03-06T02:16:34;3.87;;;2.17;;
15693;SDS011;7947;48.834;9.132;2024-03-06T02:19:37;2.33;;;1.57;;
15693;SDS011;7947;48.834;9.132;2024-03-06T02:22:43;2.83;;;1.83;;
15693;SDS011;7947;48.834;9.132;2024-03-06T02:25:46;2.60;;;1.90;;
15693;SDS011;7947;48.834;9.132;2024-03-06T02:28:50;1.80;;;1.50;;
15693;SDS011;7947;48.834;9.132;2024-03-06T02:31:54;3.07;;;1.73;;
15693;SDS011;7947;48.834;9.132;2024-03-06T02:34:56;3.03;;;1.37;;
15693;SDS011;7947;48.834;9.132;2024-03-06T02:38:00;3.40;;;1.73;;
15693;SDS011;7947;48.834;9.132;2024-03-06T02:41:04;1.93;;;1.23;;
15693;SDS011;7947;48.834;9.132;2024-03-06T02:44:08;2.80;;;1.47;;
15693;SDS011;7947;48.834;9.132;2024-03-06T02:47:11;1.87;;;1.40;;
15693;SDS011;7947;48.834;9.132;2024-03-06T02:50:14;1.80;;;1.40;;
15693;SDS011;7947;48.834;9.132;2024-03-06T02:53:18;1.53;;;1.43;;
15693;SDS011;7947;48.834;9.132;2024-03-06T02:56:21;2.40;;;1.63;;
15693;SDS011;7947;48.834;9.132;2024-03-06T02:59:24;2.07;;;1.40;;
15693;SDS011;7947;48.834;9.132;2024-03-06T03:02:27;2.60;;;1.67;;
15693;SDS011;7947;48.834;9.132;2024-03-06T03:05:30;4.87;;;1.83;;
15693;SDS011;7947;48.834;9.132;2024-03-06T03:08:35;4.27;;;1.90;;
15693;SDS011;7947;48.834;9.132;2024-03-06T03:11:39;3.63;;;1.97;;
15693;SDS011;7947;48.834;9.132;2024-03-06T03:14:41;2.80;;;2.00;;
15693;SDS011;7947;48.834;9.132;2024-03-06T03:17:44;2.13;;;1.80;;
15693;SDS011;7947;48.834;9.132;2024-03-06T03:20:47;4.00;;;2.07;;
15693;SDS011;7947;48.834;9.132;2024-03-06T03:23:51;2.37;;;1.80;;
15693;SDS011;7947;48.834;9.132;2024-03-06T03:26:54;4.90;;;2.10;;
15693;SDS011;7947;48.834;9.132;2024-03-06T03:29:56;2.90;;;1.80;;
15693;SDS011;7947;48.834;9.132;2024-03-06T03:32:59;4.17;;;1.70;;
15693;SDS011;7947;48.834;9.132;2024-03-06T03:36:02;6.07;;;2.30;;
15693;SDS011;7947;48.834;9.132;2024-03-06T03:39:07;4.37;;;1.87;;
15693;SDS011;7947;48.834;9.132;2024-03-06T03:42:14;2.30;;;1.80;;
15693;SDS011;7947;48.834;9.132;2024-03-06T03:45:17;2.47;;;1.50;;
15693;SDS011;7947;48.834;9.132;2024-03-06T03:48:21;5.50;;;2.17;;
15693;SDS011;7947;48.834;9.132;2024-03-06T03:51:24;2.40;;;1.80;;
15693;SDS011;7947;48.834;9.132;2024-03-06T03:54:28;3.90;;;2.43;;
15693;SDS011;7947;48.834;9.132;2024-03-06T03:57:30;5.43;;;2.10;;
15693;SDS011;7947;48.834;9.132;2024-03-06T04:00:33;2.87;;;1.93;;
15693;SDS011;7947;48.834;9.132;2024-03-06T04:03:36;6.13;;;2.13;;
15693;SDS011;7947;48.834;9.132;2024-03-06T04:06:38;4.57;;;1.80;;
15693;SDS011;7947;48.834;9.132;2024-03-06T04:09:42;2.60;;;2.00;;
15693;SDS011;7947;48.834;9.132;2024-03-06T04:12:45;5.93;;;2.00;;
15693;SDS011;7947;48.834;9.132;2024-03-06T04:15:48;3.37;;;1.90;;
15693;SDS011;7947;48.834;9.132;2024-03-06T04:18:51;5.93;;;2.30;;
15693;SDS011;7947;48.834;9.132;2024-03-06T04:21:53;3.17;;;2.20;;
15693;SDS011;7947;48.834;9.132;2024-03-06T04:24:57;9.20;;;3.87;;
15693;SDS011;7947;48.834;9.132;2024-03-06T04:28:00;7.73;;;2.93;;
15693;SDS011;7947;48.834;9.132;2024-03-06T04:31:04;2.47;;;2.00;;
15693;SDS011;7947;48.834;9.132;2024-03-06T04:34:07;4.80;;;2.13;;
15693;SDS011;7947;48.834;9.132;2024-03-06T04:37:09;2.70;;;1.97;;
15693;SDS011;7947;48.834;9.132;2024-03-06T04:40:14;3.53;;;2.17;;
15693;SDS011;7947;48.834;9.132;2024-03-06T04:43:19;2.53;;;1.80;;
15693;SDS011;7947;48.834;9.132;2024-03-06T04:46:22;4.07;;;2.00;;
15693;SDS011;7947;48.834;9.132;2024-03-06T04:49:24;3.30;;;1.90;;
15693;SDS011;7947;48.834;9.132;2024-03-06T04:52:27;3.90;;;2.23;;
15693;SDS011;7947;48.834;9.132;2024-03-06T04:55:31;3.83;;;2.83;;
15693;SDS011;7947;48.834;9.132;2024-03-06T04:58:34;5.03;;;2.57;;
15693;SDS011;7947;48.834;9.132;2024-03-06T05:01:36;4.87;;;2.50;;
15693;SDS011;7947;48.834;9.132;2024-03-06T05:04:39;7.07;;;2.60;;
15693;SDS011;7947;48.834;9.132;2024-03-06T05:08:00;2.40;;;1.90;;
15693;SDS011;7947;48.834;9.132;2024-03-06T05:11:22;3.33;;;1.67;;
15693;SDS011;7947;48.834;9.132;2024-03-06T05:14:42;6.67;;;2.70;;
15693;SDS011;7947;48.834;9.132;2024-03-06T05:18:02;3.23;;;1.80;;
15693;SDS011;7947;48.834;9.132;2024-03-06T05:21:23;3.77;;;1.90;;
15693;SDS011;7947;48.834;9.132;2024-03-06T05:24:43;4.83;;;2.27;;
15693;SDS011;7947;48.834;9.132;2024-03-06T05:28:05;5.87;;;2.20;;
15693;SDS011;7947;48.834;9.132;2024-03-06T05:31:25;5.33;;;2.63;;
15693;SDS011;7947;48.834;9.132;2024-03-06T05:34:46;3.70;;;2.60;;
15693;SDS011;7947;48.834;9.132;2024-03-06T05:38:06;3.97;;;2.43;;
15693;SDS011;7947;48.834;9.132;2024-03-06T05:41:27;4.20;;;2.83;;
15693;SDS011;7947;48.834;9.132;2024-03-06T05:44:48;6.43;;;2.50;;
15693;SDS011;7947;48.834;9.132;2024-03-06T05:48:09;4.37;;;2.33;;
15693;SDS011;7947;48.834;9.132;2024-03-06T05:51:29;4.88;;;3.90;;
15693;SDS011;7947;48.834;9.132;2024-03-06T05:54:49;3.37;;;2.43;;
15693;SDS011;7947;48.834;9.132;2024-03-06T05:58:10;3.70;;;2.60;;
15693;SDS011;7947;48.834;9.132;2024-03-06T06:01:18;6.40;;;2.70;;
15693;SDS011;7947;48.834;9.132;2024-03-06T06:04:22;4.40;;;2.73;;
15693;SDS011;7947;48.834;9.132;2024-03-06T06:07:24;7.63;;;4.17;;
15693;SDS011;7947;48.834;9.132;2024-03-06T06:10:27;10.90;;;3.33;;
15693;SDS011;7947;48.834;9.132;2024-03-06T06:13:30;4.13;;;2.70;;
15693;SDS011;7947;48.834;9.132;2024-03-06T06:16:37;4.50;;;2.37;;
15693;SDS011;7947;48.834;9.132;2024-03-06T06:19:42;4.00;;;2.70;;
15693;SDS011;7947;48.834;9.132;2024-03-06T06:22:45;3.27;;;2.13;;
15693;SDS011;7947;48.834;9.132;2024-03-06T06:25:47;4.33;;;2.50;;
15693;SDS011;7947;48.834;9.132;2024-03-06T06:28:50;3.97;;;2.60;;
15693;SDS011;7947;48.834;9.132;2024-03-06T06:31:54;7.50;;;3.20;;
15693;SDS011;7947;48.834;9.132;2024-03-06T06:34:58;3.90;;;2.80;;
15693;SDS011;7947;48.834;9.132;2024-03-06T06:38:01;3.73;;;2.60;;
15693;SDS011;7947;48.834;9.132;2024-03-06T06:41:06;6.10;;;2.50;;
15693;SDS011;7947;48.834;9.132;2024-03-06T06:44:08;8.40;;;2.73;;
15693;SDS011;7947;48.834;9.132;2024-03-06T06:47:12;4.33;;;2.20;;
15693;SDS011;7947;48.834;9.132;2024-03-06T06:50:15;3.13;;;2.40;;
15693;SDS011;7947;48.834;9.132;2024-03-06T06:53:18;3.73;;;2.50;;
15693;SDS011;7947;48.834;9.132;2024-03-06T06:56:21;4.20;;;2.67;;
15693;SDS011;7947;48.834;9.132;2024-03-06T06:59:25;4.83;;;2.50;;
15693;SDS011;7947;48.834;9.132;2024-03-06T07:02:30;3.67;;;2.27;;
15693;SDS011;7947;48.834;9.132;2024-03-06T07:05:33;4.77;;;2.63;;
15693;SDS011;7947;48.834;9.132;2024-03-06T07:08:36;3.10;;;2.10;;
15693;SDS011;7947;48.834;9.132;2024-03-06T07:11:40;4.73;;;2.73;;
15693;SDS011;7947;48.834;9.132;2024-03-06T07:14:43;6.23;;;3.27;;
15693;SDS011;7947;48.834;9.132;2024-03-06T07:17:47;3.50;;;2.50;;
15693;SDS011;7947;48.834;9.132;2024-03-06T07:20:50;7.47;;;2.70;;
15693;SDS011;7947;48.834;9.132;2024-03-06T07:23:53;3.70;;;2.67;;
15693;SDS011;7947;48.834;9.132;2024-03-06T07:26:56;4.53;;;2.43;;
15693;SDS011;7947;48.834;9.132;2024-03-06T07:29:58;5.07;;;2.83;;
15693;SDS011;7947;48.834;9.132;2024-03-06T07:33:03;4.20;;;2.60;;
15693;SDS011;7947;48.834;9.132;2024-03-06T07:36:06;2.93;;;2.30;;
15693;SDS011;7947;48.834;9.132;2024-03-06T07:39:09;7.33;;;3.77;;
15693;SDS011;7947;48.834;9.132;2024-03-06T07:42:13;4.83;;;2.20;;
15693;SDS011;7947;48.834;9.132;2024-03-06T07:45:16;4.23;;;2.70;;
15693;SDS011;7947;48.834;9.132;2024-03-06T07:48:20;6.63;;;2.87;;
15693;SDS011;7947;48.834;9.132;2024-03-06T07:51:23;3.77;;;2.30;;
15693;SDS011;7947;48.834;9.132;2024-03-06T07:54:26;4.47;;;2.87;;
15693;SDS011;7947;48.834;9.132;2024-03-06T07:57:29;5.60;;;2.70;;
15693;SDS011;7947;48.834;9.132;2024-03-06T08:00:31;3.57;;;2.27;;
15693;SDS011;7947;48.834;9.132;2024-03-06T08:03:36;2.93;;;2.13;;
15693;SDS011;7947;48.834;9.132;2024-03-06T08:06:41;3.00;;;2.33;;
15693;SDS011;7947;48.834;9.132;2024-03-06T08:09:44;3.70;;;2.30;;
15693;SDS011;7947;48.834;9.132;2024-03-06T08:12:47;3.07;;;2.10;;
15693;SDS011;7947;48.834;9.132;2024-03-06T08:15:50;2.33;;;1.90;;
15693;SDS011;7947;48.834;9.132;2024-03-06T08:18:56;4.80;;;2.33;;
15693;SDS011;7947;48.834;9.132;2024-03-06T08:22:00;6.90;;;2.40;;
15693;SDS011;7947;48.834;9.132;2024-03-06T08:25:07;5.13;;;2.77;;
15693;SDS011;7947;48.834;9.132;2024-03-06T08:28:10;3.23;;;1.93;;
15693;SDS011;7947;48.834;9.132;2024-03-06T08:31:13;5.50;;;2.60;;
15693;SDS011;7947;48.834;9.132;2024-03-06T08:34:17;2.20;;;1.93;;
15693;SDS011;7947;48.834;9.132;2024-03-06T08:37:20;4.50;;;2.63;;
15693;SDS011;7947;48.834;9.132;2024-03-06T08:40:23;3.47;;;2.50;;
15693;SDS011;7947;48.834;9.132;2024-03-06T08:43:27;3.80;;;2.80;;
15693;SDS011;7947;48.834;9.132;2024-03-06T08:46:29;3.17;;;2.53;;
15693;SDS011;7947;48.834;9.132;2024-03-06T08:49:33;4.17;;;2.80;;
15693;SDS011;7947;48.834;9.132;2024-03-06T08:52:36;5.90;;;3.10;;
15693;SDS011;7947;48.834;9.132;2024-03-06T08:55:40;4.40;;;2.47;;
15693;SDS011;7947;48.834;9.132;2024-03-06T08:58:42;4.07;;;2.50;;
15693;SDS011;7947;48.834;9.132;2024-03-06T09:01:45;4.13;;;2.67;;
15693;SDS011;7947;48.834;9.132;2024-03-06T09:04:50;3.33;;;2.60;;
15693;SDS011;7947;48.834;9.132;2024-03-06T09:07:53;6.33;;;2.80;;
15693;SDS011;7947;48.834;9.132;2024-03-06T09:10:55;5.57;;;2.60;;
15693;SDS011;7947;48.834;9.132;2024-03-06T09:14:00;4.93;;;2.37;;
15693;SDS011;7947;48.834;9.132;2024-03-06T09:17:05;4.50;;;2.67;;
15693;SDS011;7947;48.834;9.132;2024-03-06T09:20:12;7.63;;;2.93;;
15693;SDS011;7947;48.834;9.132;2024-03-06T09:23:15;3.60;;;2.60;;
15693;SDS011;7947;48.834;9.132;2024-03-06T09:26:18;6.73;;;2.67;;
15693;SDS011;7947;48.834;9.132;2024-03-06T09:29:22;5.70;;;3.00;;
15693;SDS011;7947;48.834;9.132;2024-03-06T09:32:24;3.30;;;2.67;;
15693;SDS011;7947;48.834;9.132;2024-03-06T09:35:29;4.63;;;2.90;;
15693;SDS011;7947;48.834;9.132;2024-03-06T09:38:34;5.90;;;3.17;;
15693;SDS011;7947;48.834;9.132;2024-03-06T09:41:39;4.37;;;3.07;;
15693;SDS011;7947;48.834;9.132;2024-03-06T09:44:43;3.53;;;3.23;;
15693;SDS011;7947;48.834;9.132;2024-03-06T09:47:49;6.43;;;3.57;;
15693;SDS011;7947;48.834;9.132;2024-03-06T09:50:57;8.00;;;4.00;;
15693;SDS011;7947;48.834;9.132;2024-03-06T09:54:03;7.53;;;4.13;;
15693;SDS011;7947;48.834;9.132;2024-03-06T09:57:08;4.10;;;3.70;;
15693;SDS011;7947;48.834;9.132;2024-03-06T10:00:12;6.53;;;4.17;;
15693;SDS011;7947;48.834;9.132;2024-03-06T10:03:18;6.03;;;4.50;;
15693;SDS011;7947;48.834;9.132;2024-03-06T10:06:22;5.93;;;4.17;;
15693;SDS011;7947;48.834;9.132;2024-03-06T10:09:26;8.63;;;4.67;;
15693;SDS011;7947;48.834;9.132;2024-03-06T10:12:30;7.30;;;5.10;;
15693;SDS011;7947;48.834;9.132;2024-03-06T10:15:33;5.50;;;4.70;;
15693;SDS011;7947;48.834;9.132;2024-03-06T10:18:38;7.47;;;6.00;;
15693;SDS011;7947;48.834;9.132;2024-03-06T10:21:42;7.57;;;5.37;;
15693;SDS011;7947;48.834;9.132;2024-03-06T10:24:46;9.53;;;5.53;;
15693;SDS011;7947;48.834;9.132;2024-03-06T10:28:05;7.97;;;5.70;;
15693;SDS011;7947;48.834;9.132;2024-03-06T10:31:09;9.10;;;5.97;;
15693;SDS011;7947;48.834;9.132;2024-03-06T10:34:11;9.10;;;6.70;;
15693;SDS011;7947;48.834;9.132;2024-03-06T10:37:15;7.70;;;6.40;;
15693;SDS011;7947;48.834;9.132;2024-03-06T10:40:18;9.33;;;6.20;;
15693;SDS011;7947;48.834;9.132;2024-03-06T10:43:22;8.90;;;6.67;;
15693;SDS011;7947;48.834;9.132;2024-03-06T10:46:26;9.43;;;7.27;;
15693;SDS011;7947;48.834;9.132;2024-03-06T10:49:30;9.37;;;6.90;;
15693;SDS011;7947;48.834;9.132;2024-03-06T10:52:37;10.83;;;6.97;;
15693;SDS011;7947;48.834;9.132;2024-03-06T10:55:42;10.03;;;7.90;;
15693;SDS011;7947;48.834;9.132;2024-03-06T10:58:46;11.60;;;7.83;;
15693;SDS011;7947;48.834;9.132;2024-03-06T11:01:52;10.40;;;7.17;;
15693;SDS011;7947;48.834;9.132;2024-03-06T11:04:56;10.40;;;7.53;;
15693;SDS011;7947;48.834;9.132;2024-03-06T11:08:00;10.77;;;7.70;;
15693;SDS011;7947;48.834;9.132;2024-03-06T11:11:19;11.83;;;7.70;;
15693;SDS011;7947;48.834;9.132;2024-03-06T11:14:23;12.50;;;8.73;;
15693;SDS011;7947;48.834;9.132;2024-03-06T11:17:27;12.53;;;8.40;;
15693;SDS011;7947;48.834;9.132;2024-03-06T11:20:32;10.67;;;8.47;;
15693;SDS011;7947;48.834;9.132;2024-03-06T11:23:38;10.97;;;8.43;;
15693;SDS011;7947;48.834;9.132;2024-03-06T11:27:16;12.33;;;9.60;;
15693;SDS011;7947;48.834;9.132;2024-03-06T11:30:19;13.40;;;8.87;;
15693;SDS011;7947;48.834;9.132;2024-03-06T11:33:22;14.30;;;9.60;;
15693;SDS011;7947;48.834;9.132;2024-03-06T11:36:26;14.90;;;10.80;;
15693;SDS011;7947;48.834;9.132;2024-03-06T11:39:34;15.77;;;10.87;;
15693;SDS011;7947;48.834;9.132;2024-03-06T11:42:38;15.20;;;11.00;;
15693;SDS011;7947;48.834;9.132;2024-03-06T11:45:43;14.37;;;10.27;;
15693;SDS011;7947;48.834;9.132;2024-03-06T11:48:53;14.70;;;10.80;;
15693;SDS011;7947;48.834;9.132;2024-03-06T11:51:57;15.97;;;11.40;;
15693;SDS011;7947;48.834;9.132;2024-03-06T11:55:07;17.47;;;11.87;;
15693;SDS011;7947;48.834;9.132;2024-03-06T11:58:10;17.67;;;12.03;;
15693;SDS011;7947;48.834;9.132;2024-03-06T12:01:13;16.03;;;11.17;;
15693;SDS011;7947;48.834;9.132;2024-03-06T12:04:16;15.43;;;10.67;;
15693;SDS011;7947;48.834;9.132;2024-03-06T12:07:19;17.73;;;10.70;;
15693;SDS011;7947;48.834;9.132;2024-03-06T12:10:23;14.10;;;10.13;;
15693;SDS011;7947;48.834;9.132;2024-03-06T12:13:25;16.13;;;11.00;;
15693;SDS011;7947;48.834;9.132;2024-03-06T12:16:29;13.87;;;10.00;;
15693;SDS011;7947;48.834;9.132;2024-03-06T12:19:32;16.83;;;10.97;;
15693;SDS011;7947;48.834;9.132;2024-03-06T12:22:35;15.40;;;11.00;;
15693;SDS011;7947;48.834;9.132;2024-03-06T12:25:39;14.17;;;11.23;;
15693;SDS011;7947;48.834;9.132;2024-03-06T12:29:05;13.73;;;10.63;;
15693;SDS011;7947;48.834;9.132;2024-03-06T12:32:15;15.50;;;10.70;;
15693;SDS011;7947;48.834;9.132;2024-03-06T12:35:23;13.23;;;9.87;;
15693;SDS011;7947;48.834;9.132;2024-03-06T12:38:28;16.40;;;10.93;;
15693;SDS011;7947;48.834;9.132;2024-03-06T12:41:32;16.17;;;10.40;;
15693;SDS011;7947;48.834;9.132;2024-03-06T12:44:36;14.17;;;10.23;;
15693;SDS011;7947;48.834;9.132;2024-03-06T12:47:41;13.73;;;9.93;;
15693;SDS011;7947;48.834;9.132;2024-03-06T12:50:44;14.00;;;10.03;;
15693;SDS011;7947;48.834;9.132;2024-03-06T12:53:52;14.20;;;10.70;;
15693;SDS011;7947;48.834;9.132;2024-03-06T12:56:56;14.50;;;9.93;;
15693;SDS011;7947;48.834;9.132;2024-03-06T12:59:59;14.07;;;8.87;;
15693;SDS011;7947;48.834;9.132;2024-03-06T13:03:02;12.17;;;9.97;;
15693;SDS011;7947;48.834;9.132;2024-03-06T13:06:05;15.07;;;10.00;;
15693;SDS011;7947;48.834;9.132;2024-03-06T13:09:08;16.97;;;10.57;;
15693;SDS011;7947;48.834;9.132;2024-03-06T13:12:13;15.70;;;9.80;;
15693;SDS011;7947;48.834;9.132;2024-03-06T13:15:15;11.87;;;8.27;;
15693;SDS011;7947;48.834;9.132;2024-03-06T13:18:18;11.60;;;9.00;;
15693;SDS011;7947;48.834;9.132;2024-03-06T13:21:21;11.57;;;8.80;;
15693;SDS011;7947;48.834;9.132;2024-03-06T13:24:24;13.40;;;9.07;;
15693;SDS011;7947;48.834;9.132;2024-03-06T13:27:28;10.40;;;8.00;;
15693;SDS011;7947;48.834;9.132;2024-03-06T13:30:31;11.27;;;8.17;;
15693;SDS011;7947;48.834;9.132;2024-03-06T13:33:34;11.27;;;8.27;;
15693;SDS011;7947;48.834;9.132;2024-03-06T13:36:37;12.77;;;8.70;;
15693;SDS011;7947;48.834;9.132;2024-03-06T13:39:39;10.70;;;8.47;;
15693;SDS011;7947;48.834;9.132;2024-03-06T13:42:44;11.17;;;8.27;;
15693;SDS011;7947;48.834;9.132;2024-03-06T13:45:48;13.10;;;8.53;;
15693;SDS011;7947;48.834;9.132;2024-03-06T13:48:51;11.97;;;8.97;;
15693;SDS011;7947;48.834;9.132;2024-03-06T13:51:54;13.60;;;8.80;;
15693;SDS011;7947;48.834;9.132;2024-03-06T13:54:57;13.00;;;9.70;;
15693;SDS011;7947;48.834;9.132;2024-03-06T13:58:00;11.97;;;9.23;;
15693;SDS011;7947;48.834;9.132;2024-03-06T14:01:05;13.33;;;9.47;;
15693;SDS011;7947;48.834;9.132;2024-03-06T14:04:08;15.53;;;9.63;;
15693;SDS011;7947;48.834;9.132;2024-03-06T14:07:11;15.00;;;8.77;;
15693;SDS011;7947;48.834;9.132;2024-03-06T14:10:14;10.67;;;8.50;;
15693;SDS011;7947;48.834;9.132;2024-03-06T14:13:19;11.70;;;9.00;;
15693;SDS011;7947;48.834;9.132;2024-03-06T14:16:21;15.23;;;9.63;;
15693;SDS011;7947;48.834;9.132;2024-03-06T14:19:24;15.63;;;9.37;;
15693;SDS011;7947;48.834;9.132;2024-03-06T14:22:27;16.07;;;9.73;;
15693;SDS011;7947;48.834;9.132;2024-03-06T14:25:29;11.67;;;9.80;;
15693;SDS011;7947;48.834;9.132;2024-03-06T14:28:37;13.37;;;9.70;;
15693;SDS011;7947;48.834;9.132;2024-03-06T14:31:40;12.07;;;8.83;;
15693;SDS011;7947;48.834;9.132;2024-03-06T14:34:43;11.50;;;9.07;;
15693;SDS011;7947;48.834;9.132;2024-03-06T14:37:45;11.70;;;9.40;;
15693;SDS011;7947;48.834;9.132;2024-03-06T14:40:49;13.67;;;9.60;;
15693;SDS011;7947;48.834;9.132;2024-03-06T14:43:54;12.67;;;9.33;;
15693;SDS011;7947;48.834;9.132;2024-03-06T14:46:56;14.77;;;10.00;;
15693;SDS011;7947;48.834;9.132;2024-03-06T14:49:59;13.87;;;9.13;;
15693;SDS011;7947;48.834;9.132;2024-03-06T14:53:02;13.17;;;8.53;;
15693;SDS011;7947;48.834;9.132;2024-03-06T14:56:07;13.93;;;9.40;;
15693;SDS011;7947;48.834;9.132;2024-03-06T14:59:13;10.83;;;9.00;;
15693;SDS011;7947;48.834;9.132;2024-03-06T15:02:16;12.63;;;9.93;;
15693;SDS011;7947;48.834;9.132;2024-03-06T15:05:19;14.93;;;9.50;;
15693;SDS011;7947;48.834;9.132;2024-03-06T15:08:22;14.73;;;9.77;;
15693;SDS011;7947;48.834;9.132;2024-03-06T15:11:25;13.67;;;10.07;;
15693;SDS011;7947;48.834;9.132;2024-03-06T15:14:32;15.70;;;10.07;;
15693;SDS011;7947;48.834;9.132;2024-03-06T15:17:46;12.90;;;8.90;;
15693;SDS011;7947;48.834;9.132;2024-03-06T15:20:49;14.63;;;9.80;;
15693;SDS011;7947;48.834;9.132;2024-03-06T15:23:53;16.57;;;10.73;;
15693;SDS011;7947;48.834;9.132;2024-03-06T15:26:55;13.77;;;9.40;;
15693;SDS011;7947;48.834;9.132;2024-03-06T15:29:59;14.70;;;10.43;;
15693;SDS011;7947;48.834;9.132;2024-03-06T15:33:02;15.17;;;10.40;;
15693;SDS011;7947;48.834;9.132;2024-03-06T15:36:06;16.90;;;10.70;;
15693;SDS011;7947;48.834;9.132;2024-03-06T15:39:09;15.53;;;10.67;;
15693;SDS011;7947;48.834;9.132;2024-03-06T15:42:11;14.77;;;10.07;;
15693;SDS011;7947;48.834;9.132;2024-03-06T15:45:16;12.73;;;10.13;;
15693;SDS011;7947;48.834;9.132;2024-03-06T15:48:19;15.87;;;10.73;;
15693;SDS011;7947;48.834;9.132;2024-03-06T15:51:22;16.73;;;11.20;;
15693;SDS011;7947;48.834;9.132;2024-03-06T15:54:24;15.07;;;9.63;;
15693;SDS011;7947;48.834;9.132;2024-03-06T15:57:27;12.40;;;8.90;;
15693;SDS011;7947;48.834;9.132;2024-03-06T16:00:31;15.23;;;11.27;;
15693;SDS011;7947;48.834;9.132;2024-03-06T16:03:34;16.87;;;11.03;;
15693;SDS011;7947;48.834;9.132;2024-03-06T16:06:37;14.83;;;10.37;;
15693;SDS011;7947;48.834;9.132;2024-03-06T16:09:42;18.30;;;10.60;;
15693;SDS011;7947;48.834;9.132;2024-03-06T16:12:45;12.97;;;9.83;;
15693;SDS011;7947;48.834;9.132;2024-03-06T16:15:49;15.27;;;10.07;;
15693;SDS011;7947;48.834;9.132;2024-03-06T16:18:52;19.37;;;11.63;;
15693;SDS011;7947;48.834;9.132;2024-03-06T16:21:54;16.33;;;11.43;;
15693;SDS011;7947;48.834;9.132;2024-03-06T16:24:57;17.13;;;10.70;;
15693;SDS011;7947;48.834;9.132;2024-03-06T16:28:00;17.00;;;11.00;;
15693;SDS011;7947;48.834;9.132;2024-03-06T16:31:04;16.63;;;11.73;;
15693;SDS011;7947;48.834;9.132;2024-03-06T16:34:07;18.87;;;11.30;;
15693;SDS011;7947;48.834;9.132;2024-03-06T16:37:09;19.77;;;12.10;;
15693;SDS011;7947;48.834;9.132;2024-03-06T16:40:12;16.73;;;11.43;;
15693;SDS011;7947;48.834;9.132;2024-03-06T16:43:15;18.27;;;11.23;;
15693;SDS011;7947;48.834;9.132;2024-03-06T16:46:19;20.70;;;12.27;;
15693;SDS011;7947;48.834;9.132;2024-03-06T16:49:22;18.63;;;11.87;;
15693;SDS011;7947;48.834;9.132;2024-03-06T16:52:24;17.90;;;11.30;;
15693;SDS011;7947;48.834;9.132;2024-03-06T16:55:27;20.47;;;11.50;;
15693;SDS011;7947;48.834;9.132;2024-03-06T16:58:31;17.03;;;11.77;;
15693;SDS011;7947;48.834;9.132;2024-03-06T17:01:35;18.93;;;11.93;;
15693;SDS011;7947;48.834;9.132;2024-03-06T17:04:38;17.97;;;11.27;;
15693;SDS011;7947;48.834;9.132;2024-03-06T17:07:42;18.97;;;11.83;;
15693;SDS011;7947;48.834;9.132;2024-03-06T17:10:45;16.00;;;10.83;;
15693;SDS011;7947;48.834;9.132;2024-03-06T17:13:50;18.93;;;10.93;;
15693;SDS011;7947;48.834;9.132;2024-03-06T17:16:54;17.20;;;11.13;;
15693;SDS011;7947;48.834;9.132;2024-03-06T17:19:56;18.00;;;11.23;;
15693;SDS011;7947;48.834;9.132;2024-03-06T17:22:59;16.93;;;11.63;;
15693;SDS011;7947;48.834;9.132;2024-03-06T17:26:04;17.57;;;11.93;;
15693;SDS011;7947;48.834;9.132;2024-03-06T17:29:07;19.67;;;11.37;;
15693;SDS011;7947;48.834;9.132;2024-03-06T17:32:12;19.03;;;11.13;;
15693;SDS011;7947;48.834;9.132;2024-03-06T17:35:15;14.77;;;10.03;;
15693;SDS011;7947;48.834;9.132;2024-03-06T17:38:17;15.87;;;11.03;;
15693;SDS011;7947;48.834;9.132;2024-03-06T17:41:20;12.83;;;10.00;;
15693;SDS011;7947;48.834;9.132;2024-03-06T17:44:23;16.17;;;11.07;;
15693;SDS011;7947;48.834;9.132;2024-03-06T17:47:27;20.73;;;11.47;;
15693;SDS011;7947;48.834;9.132;2024-03-06T17:50:30;17.07;;;10.43;;
15693;SDS011;7947;48.834;9.132;2024-03-06T17:53:34;17.70;;;10.43;;
15693;SDS011;7947;48.834;9.132;2024-03-06T17:56:37;16.27;;;10.73;;
15693;SDS011;7947;48.834;9.132;2024-03-06T17:59:39;14.60;;;9.40;;
15693;SDS011;7947;48.834;9.132;2024-03-06T18:02:44;14.50;;;10.67;;
15693;SDS011;7947;48.834;9.132;2024-03-06T18:05:47;18.23;;;10.70;;
15693;SDS011;7947;48.834;9.132;2024-03-06T18:08:50;16.27;;;10.40;;
15693;SDS011;7947;48.834;9.132;2024-03-06T18:11:53;14.10;;;10.33;;
15693;SDS011;7947;48.834;9.132;2024-03-06T18:14:56;17.43;;;10.77;;
15693;SDS011;7947;48.834;9.132;2024-03-06T18:18:01;13.20;;;10.37;;
15693;SDS011;7947;48.834;9.132;2024-03-06T18:21:05;17.97;;;11.13;;
15693;SDS011;7947;48.834;9.132;2024-03-06T18:24:09;14.70;;;10.90;;
15693;SDS011;7947;48.834;9.132;2024-03-06T18:27:15;14.63;;;11.00;;
15693;SDS011;7947;48.834;9.132;2024-03-06T18:30:18;16.60;;;11.57;;
15693;SDS011;7947;48.834;9.132;2024-03-06T18:33:22;16.43;;;10.23;;
15693;SDS011;7947;48.834;9.132;2024-03-06T18:36:25;18.57;;;11.07;;
15693;SDS011;7947;48.834;9.132;2024-03-06T18:39:27;16.93;;;10.83;;